Time;durP1;ratioP1;P1;durP2;ratioP2;P2;SDS_P1;SDS_P2;PMS_P1;PMS_P2;Temp;Humidity;BMP_temperature;BMP_pressure;BME280_temperature;BME280_humidity;BME280_pressure;Samples;Min_cycle;Max_cycle;Signal;HPM_P1;HPM_P2
2023/07/31 00:00:59;;;;;;;7.30;2.50;;;;;;;;;;5037775;28;20223;-78
2023/07/31 00:03:24;;;;;;;2.87;1.90;;;;;;;;;;5047577;28;20226;-78
2023/07/31 00:05:49;;;;;;;4.93;2.43;;;;;;;;;;5040335;28;20189;-78
2023/07/31 00:08:16;;;;;;;3.57;2.13;;;;;;;;;;5043031;28;20229;-78
2023/07/31 00:10:41;;;;;;;2.77;1.90;;;;;;;;;;5045961;28;20213;-78
2023/07/31 00:13:06;;;;;;;2.50;1.90;;;;;;;;;;5047835;28;20284;-77
2023/07/31 00:15:31;;;;;;;2.43;2.17;;;;;;;;;;5036832;28;20219;-77
2023/07/31 00:17:57;;;;;;;3.50;1.90;;;;;;;;;;5047545;28;20200;-78
2023/07/31 00:20:22;;;;;;;2.77;2.40;;;;;;;;;;5042231;28;20181;-78
2023/07/31 00:22:47;;;;;;;2.97;2.07;;;;;;;;;;5047977;28;20178;-78
2023/07/31 00:25:12;;;;;;;5.17;2.37;;;;;;;;;;5047816;28;20195;-77
2023/07/31 00:27:38;;;;;;;3.27;1.80;;;;;;;;;;5048866;28;20224;-78
2023/07/31 00:30:03;;;;;;;2.97;1.70;;;;;;;;;;5042739;28;20184;-78
2023/07/31 00:32:28;;;;;;;6.57;2.43;;;;;;;;;;5046254;28;20181;-78
2023/07/31 00:34:53;;;;;;;4.73;2.30;;;;;;;;;;5044393;28;20322;-78
2023/07/31 00:37:19;;;;;;;4.50;2.00;;;;;;;;;;5040816;28;20177;-78
2023/07/31 00:39:44;;;;;;;3.57;2.10;;;;;;;;;;5043311;28;20184;-78
2023/07/31 00:42:09;;;;;;;2.57;1.93;;;;;;;;;;5037250;28;20176;-78
2023/07/31 00:44:34;;;;;;;4.83;2.27;;;;;;;;;;5041034;28;20209;-78
2023/07/31 00:46:59;;;;;;;2.07;1.80;;;;;;;;;;5045246;28;20231;-78
2023/07/31 00:49:25;;;;;;;5.63;2.27;;;;;;;;;;5036882;28;20281;-78
2023/07/31 00:51:50;;;;;;;1.93;1.77;;;;;;;;;;5036220;28;20186;-78
2023/07/31 00:54:16;;;;;;;2.43;2.10;;;;;;;;;;5043969;28;20209;-77
2023/07/31 00:56:41;;;;;;;2.20;2.00;;;;;;;;;;5042160;28;20194;-78
2023/07/31 00:59:07;;;;;;;3.70;2.03;;;;;;;;;;5048173;28;20181;-78
2023/07/31 01:01:32;;;;;;;5.67;2.50;;;;;;;;;;5037695;28;20274;-78
2023/07/31 01:03:57;;;;;;;3.63;2.10;;;;;;;;;;5038712;28;20384;-77
2023/07/31 01:06:22;;;;;;;2.13;1.93;;;;;;;;;;5036765;28;20237;-78
2023/07/31 01:08:50;;;;;;;4.67;2.03;;;;;;;;;;5043016;28;20251;-78
2023/07/31 01:11:19;;;;;;;4.10;2.03;;;;;;;;;;5036892;28;20204;-77
2023/07/31 01:13:45;;;;;;;2.10;1.90;;;;;;;;;;5043397;28;20212;-77
2023/07/31 01:16:10;;;;;;;5.90;1.87;;;;;;;;;;5037724;28;20176;-77
2023/07/31 01:18:35;;;;;;;3.20;2.00;;;;;;;;;;5042798;28;20258;-78
2023/07/31 01:21:16;;;;;;;4.33;1.90;;;;;;;;;;5041349;28;20171;-78
2023/07/31 01:23:51;;;;;;;2.97;2.00;;;;;;;;;;5036076;28;20213;-78
2023/07/31 01:26:21;;;;;;;5.50;2.33;;;;;;;;;;5044257;28;20253;-78
2023/07/31 01:29:01;;;;;;;3.00;2.00;;;;;;;;;;5038349;28;20184;-78
2023/07/31 01:31:28;;;;;;;3.63;2.03;;;;;;;;;;5040963;28;20250;-78
2023/07/31 01:33:56;;;;;;;2.97;2.30;;;;;;;;;;5039530;28;20275;-78
2023/07/31 01:36:21;;;;;;;4.37;2.20;;;;;;;;;;5042720;28;20204;-78
2023/07/31 01:38:46;;;;;;;7.33;3.13;;;;;;;;;;5037015;28;20220;-78
2023/07/31 01:41:12;;;;;;;2.43;1.90;;;;;;;;;;5035351;28;20185;-78
2023/07/31 01:43:37;;;;;;;6.30;2.50;;;;;;;;;;5039689;28;20180;-78
2023/07/31 01:46:02;;;;;;;5.30;2.00;;;;;;;;;;5042305;28;20239;-78
2023/07/31 01:48:27;;;;;;;2.50;1.87;;;;;;;;;;5042593;28;20254;-78
2023/07/31 01:50:53;;;;;;;3.77;2.43;;;;;;;;;;5043464;28;20220;-77
2023/07/31 01:53:18;;;;;;;4.47;2.13;;;;;;;;;;5042653;28;20205;-78
2023/07/31 01:55:43;;;;;;;3.67;2.20;;;;;;;;;;5035072;28;20213;-78
2023/07/31 01:58:09;;;;;;;3.60;1.80;;;;;;;;;;5036449;28;20184;-78
2023/07/31 02:00:34;;;;;;;5.50;1.93;;;;;;;;;;5041049;28;20195;-77
2023/07/31 02:02:59;;;;;;;3.27;2.20;;;;;;;;;;5043350;28;20200;-78
2023/07/31 02:05:25;;;;;;;4.73;2.10;;;;;;;;;;5043528;28;20253;-78
2023/07/31 02:07:50;;;;;;;2.43;1.80;;;;;;;;;;5042125;28;20214;-78
2023/07/31 02:10:15;;;;;;;3.13;2.30;;;;;;;;;;5040432;28;20304;-78
2023/07/31 02:12:40;;;;;;;4.20;2.60;;;;;;;;;;5041671;28;20210;-78
2023/07/31 02:15:06;;;;;;;4.47;2.13;;;;;;;;;;5039354;28;20175;-78
2023/07/31 02:17:31;;;;;;;3.60;2.27;;;;;;;;;;5041728;28;20176;-78
2023/07/31 02:19:56;;;;;;;4.13;2.73;;;;;;;;;;5036188;28;20185;-78
2023/07/31 02:22:21;;;;;;;4.00;2.00;;;;;;;;;;5037906;28;20208;-78
2023/07/31 02:24:47;;;;;;;2.83;2.20;;;;;;;;;;5048611;28;20176;-78
2023/07/31 02:27:12;;;;;;;3.07;2.37;;;;;;;;;;5036476;28;20216;-78
2023/07/31 02:29:37;;;;;;;4.10;2.27;;;;;;;;;;5048118;28;20174;-78
2023/07/31 02:32:02;;;;;;;6.47;2.37;;;;;;;;;;5041791;28;20173;-78
2023/07/31 02:34:27;;;;;;;4.43;2.30;;;;;;;;;;5044042;28;20214;-78
2023/07/31 02:36:53;;;;;;;5.77;2.13;;;;;;;;;;5039994;28;20178;-78
2023/07/31 02:39:18;;;;;;;4.00;2.50;;;;;;;;;;5042150;28;20180;-78
2023/07/31 02:41:43;;;;;;;5.60;2.80;;;;;;;;;;5036174;28;20291;-78
2023/07/31 02:44:10;;;;;;;3.13;2.17;;;;;;;;;;5039900;28;20176;-78
2023/07/31 02:46:35;;;;;;;4.63;2.50;;;;;;;;;;5040321;28;20269;-77
2023/07/31 02:49:00;;;;;;;4.47;2.87;;;;;;;;;;5039211;28;20179;-78
2023/07/31 02:51:25;;;;;;;6.60;2.40;;;;;;;;;;5048450;28;20216;-78
2023/07/31 02:53:50;;;;;;;4.47;2.70;;;;;;;;;;5041621;28;20236;-78
2023/07/31 02:56:16;;;;;;;6.03;2.97;;;;;;;;;;5048027;28;20182;-77
2023/07/31 02:58:41;;;;;;;3.63;2.93;;;;;;;;;;5044092;28;20187;-78
2023/07/31 03:01:06;;;;;;;5.87;2.50;;;;;;;;;;5044619;28;20179;-78
2023/07/31 03:03:31;;;;;;;5.67;2.37;;;;;;;;;;5045894;28;20227;-78
2023/07/31 03:05:57;;;;;;;4.57;2.40;;;;;;;;;;5049935;28;20187;-78
2023/07/31 03:08:22;;;;;;;4.97;2.30;;;;;;;;;;5044791;28;20194;-78
2023/07/31 03:10:47;;;;;;;3.93;2.10;;;;;;;;;;5042552;28;20187;-77
2023/07/31 03:13:12;;;;;;;3.77;2.33;;;;;;;;;;5040952;28;20211;-78
2023/07/31 03:15:37;;;;;;;3.63;2.00;;;;;;;;;;5045799;28;20182;-77
2023/07/31 03:18:03;;;;;;;4.43;2.30;;;;;;;;;;5046249;28;20188;-78
2023/07/31 03:20:28;;;;;;;4.60;2.00;;;;;;;;;;5041975;28;20173;-78
2023/07/31 03:22:53;;;;;;;4.30;2.50;;;;;;;;;;5047612;28;20205;-78
2023/07/31 03:25:18;;;;;;;4.13;1.93;;;;;;;;;;5041250;28;20191;-78
2023/07/31 03:27:44;;;;;;;2.80;2.33;;;;;;;;;;5048771;28;20255;-77
2023/07/31 03:30:09;;;;;;;2.87;2.33;;;;;;;;;;5039601;28;20171;-77
2023/07/31 03:32:34;;;;;;;3.87;2.53;;;;;;;;;;5045610;28;20191;-77
2023/07/31 03:34:59;;;;;;;3.47;2.33;;;;;;;;;;5045642;28;20172;-78
2023/07/31 03:37:25;;;;;;;2.97;2.20;;;;;;;;;;5046558;28;20182;-78
2023/07/31 03:39:50;;;;;;;3.60;2.60;;;;;;;;;;5042967;28;20189;-78
2023/07/31 03:42:15;;;;;;;3.37;2.30;;;;;;;;;;5046177;28;20171;-78
2023/07/31 03:44:40;;;;;;;4.20;2.40;;;;;;;;;;5039817;28;20194;-78
2023/07/31 03:47:05;;;;;;;3.50;2.10;;;;;;;;;;5041893;28;20217;-77
2023/07/31 03:49:31;;;;;;;3.87;2.40;;;;;;;;;;5045558;28;20237;-78
2023/07/31 03:51:56;;;;;;;6.10;2.37;;;;;;;;;;5046201;28;20171;-78
2023/07/31 03:54:21;;;;;;;3.53;2.63;;;;;;;;;;5043866;28;20288;-78
2023/07/31 03:56:46;;;;;;;4.40;2.10;;;;;;;;;;5041070;28;20168;-78
2023/07/31 03:59:12;;;;;;;4.53;2.50;;;;;;;;;;5048233;28;20260;-78
2023/07/31 04:01:37;;;;;;;11.33;2.63;;;;;;;;;;5047598;28;20179;-78
2023/07/31 04:04:02;;;;;;;2.93;2.20;;;;;;;;;;5043671;28;20217;-78
2023/07/31 04:06:27;;;;;;;5.60;2.63;;;;;;;;;;5047183;28;20182;-78
2023/07/31 04:08:52;;;;;;;7.37;3.00;;;;;;;;;;5036359;28;20177;-78
2023/07/31 04:11:18;;;;;;;2.70;2.30;;;;;;;;;;5045009;28;20178;-76
2023/07/31 04:13:43;;;;;;;5.43;2.03;;;;;;;;;;5036871;28;20271;-78
2023/07/31 04:16:08;;;;;;;2.47;2.17;;;;;;;;;;5040020;28;20226;-78
2023/07/31 04:18:33;;;;;;;4.10;2.40;;;;;;;;;;5041801;28;20184;-78
2023/07/31 04:20:59;;;;;;;3.37;2.30;;;;;;;;;;5042810;28;20288;-78
2023/07/31 04:23:24;;;;;;;4.00;3.00;;;;;;;;;;5045524;28;20174;-78
2023/07/31 04:25:50;;;;;;;3.73;2.87;;;;;;;;;;5046697;28;20184;-78
2023/07/31 04:28:15;;;;;;;6.70;2.53;;;;;;;;;;5045009;28;20193;-78
2023/07/31 04:30:40;;;;;;;3.80;2.30;;;;;;;;;;5044794;28;20196;-78
2023/07/31 04:33:05;;;;;;;3.40;2.40;;;;;;;;;;5047065;28;20215;-78
2023/07/31 04:35:30;;;;;;;5.37;2.50;;;;;;;;;;5045044;28;20193;-77
2023/07/31 04:37:56;;;;;;;2.63;2.30;;;;;;;;;;5041836;28;20245;-77
2023/07/31 04:40:21;;;;;;;4.03;2.80;;;;;;;;;;5037395;28;20242;-78
2023/07/31 04:42:46;;;;;;;4.63;2.93;;;;;;;;;;5039813;28;20196;-78
2023/07/31 04:45:12;;;;;;;3.40;2.03;;;;;;;;;;5043904;28;20265;-77
2023/07/31 04:47:37;;;;;;;2.80;2.00;;;;;;;;;;5038446;28;20208;-78
2023/07/31 04:50:02;;;;;;;5.10;2.60;;;;;;;;;;5045431;28;20183;-77
2023/07/31 04:52:27;;;;;;;4.60;2.40;;;;;;;;;;5042805;28;20184;-78
2023/07/31 04:54:53;;;;;;;4.87;2.50;;;;;;;;;;5038709;28;20184;-78
2023/07/31 04:57:18;;;;;;;2.70;2.37;;;;;;;;;;5048985;28;20187;-77
2023/07/31 04:59:43;;;;;;;7.23;3.00;;;;;;;;;;5038363;28;20169;-77
2023/07/31 05:02:08;;;;;;;4.13;2.77;;;;;;;;;;5042958;28;20251;-77
2023/07/31 05:04:33;;;;;;;7.20;2.20;;;;;;;;;;5038758;28;20374;-77
2023/07/31 05:06:59;;;;;;;2.80;2.10;;;;;;;;;;5043661;28;20192;-77
2023/07/31 05:09:24;;;;;;;4.13;2.47;;;;;;;;;;5036991;28;20177;-78
2023/07/31 05:11:49;;;;;;;4.43;2.57;;;;;;;;;;5041771;28;20186;-78
2023/07/31 05:14:15;;;;;;;6.03;2.23;;;;;;;;;;5040605;28;20212;-78
2023/07/31 05:16:40;;;;;;;3.83;2.63;;;;;;;;;;5037590;28;20181;-74
2023/07/31 05:19:06;;;;;;;4.57;2.80;;;;;;;;;;5046903;28;20170;-74
2023/07/31 05:21:31;;;;;;;3.23;2.40;;;;;;;;;;5042771;28;20211;-75
2023/07/31 05:23:56;;;;;;;6.30;3.93;;;;;;;;;;5047501;28;20185;-74
2023/07/31 05:26:22;;;;;;;5.07;2.43;;;;;;;;;;5040845;28;20212;-75
2023/07/31 05:28:47;;;;;;;4.13;2.77;;;;;;;;;;5045022;28;20181;-74
2023/07/31 05:31:12;;;;;;;6.90;2.57;;;;;;;;;;5035649;28;20203;-74
2023/07/31 05:33:37;;;;;;;8.00;3.50;;;;;;;;;;5036059;28;20227;-74
2023/07/31 05:36:02;;;;;;;7.37;3.27;;;;;;;;;;5040699;28;20174;-74
2023/07/31 05:38:28;;;;;;;4.97;2.70;;;;;;;;;;5033770;28;20178;-74
2023/07/31 05:40:53;;;;;;;3.20;2.27;;;;;;;;;;5038589;28;20190;-74
2023/07/31 05:43:18;;;;;;;9.10;2.40;;;;;;;;;;5041710;28;20183;-74
2023/07/31 05:45:43;;;;;;;2.70;2.17;;;;;;;;;;5040028;28;20178;-74
2023/07/31 05:48:08;;;;;;;4.47;2.33;;;;;;;;;;5043014;28;20192;-74
2023/07/31 05:50:34;;;;;;;4.37;3.07;;;;;;;;;;5041534;28;20182;-75
2023/07/31 05:52:59;;;;;;;3.57;2.40;;;;;;;;;;5035850;28;20239;-74
2023/07/31 05:55:26;;;;;;;4.13;2.43;;;;;;;;;;5038200;28;20190;-74
2023/07/31 05:57:52;;;;;;;3.93;2.17;;;;;;;;;;5043402;28;20208;-74
2023/07/31 06:00:17;;;;;;;3.47;2.30;;;;;;;;;;5038542;28;20186;-74
2023/07/31 06:02:42;;;;;;;8.97;2.87;;;;;;;;;;5040496;28;20197;-74
2023/07/31 06:05:07;;;;;;;4.40;2.23;;;;;;;;;;5036721;28;20242;-74
2023/07/31 06:07:33;;;;;;;5.73;2.63;;;;;;;;;;5039847;28;20217;-74
2023/07/31 06:10:04;;;;;;;3.70;2.30;;;;;;;;;;5044015;28;20178;-74
2023/07/31 06:12:30;;;;;;;3.60;2.37;;;;;;;;;;5043100;28;20178;-74
2023/07/31 06:14:56;;;;;;;3.00;2.50;;;;;;;;;;5041186;28;20187;-74
2023/07/31 06:17:21;;;;;;;10.63;3.33;;;;;;;;;;5037446;28;20209;-74
2023/07/31 06:19:46;;;;;;;8.67;2.90;;;;;;;;;;5044523;28;20216;-74
2023/07/31 06:22:11;;;;;;;3.17;2.10;;;;;;;;;;5041959;28;20235;-74
2023/07/31 06:24:37;;;;;;;2.90;2.20;;;;;;;;;;5034907;28;20217;-74
2023/07/31 06:27:03;;;;;;;9.47;4.20;;;;;;;;;;5033941;28;20178;-74
2023/07/31 06:29:29;;;;;;;4.93;2.40;;;;;;;;;;5035196;28;20233;-74
2023/07/31 06:31:54;;;;;;;4.20;2.87;;;;;;;;;;5032099;28;20190;-74
2023/07/31 06:34:19;;;;;;;4.53;2.80;;;;;;;;;;5026892;28;20251;-74
2023/07/31 06:36:45;;;;;;;4.37;2.97;;;;;;;;;;5034861;28;20169;-74
2023/07/31 06:39:10;;;;;;;7.40;3.40;;;;;;;;;;5040285;28;20213;-74
2023/07/31 06:41:35;;;;;;;2.80;2.20;;;;;;;;;;5044704;28;20312;-74
2023/07/31 06:44:00;;;;;;;4.40;2.10;;;;;;;;;;5032317;28;20205;-74
2023/07/31 06:46:25;;;;;;;2.77;2.33;;;;;;;;;;5037486;28;20229;-75
2023/07/31 06:48:51;;;;;;;4.97;2.60;;;;;;;;;;5036768;28;20194;-75
2023/07/31 06:51:16;;;;;;;5.00;3.33;;;;;;;;;;5040483;28;20195;-74
2023/07/31 06:53:41;;;;;;;7.53;3.43;;;;;;;;;;5042707;28;20313;-75
2023/07/31 06:56:07;;;;;;;3.57;2.40;;;;;;;;;;5041613;28;20193;-74
2023/07/31 06:58:32;;;;;;;5.43;2.70;;;;;;;;;;5047921;28;20214;-74
2023/07/31 07:00:57;;;;;;;4.67;2.50;;;;;;;;;;5035460;28;20282;-74
2023/07/31 07:03:22;;;;;;;3.97;2.40;;;;;;;;;;5042454;28;20360;-74
2023/07/31 07:05:48;;;;;;;4.57;2.50;;;;;;;;;;5035406;28;20174;-74
2023/07/31 07:08:13;;;;;;;4.40;2.47;;;;;;;;;;5036651;28;20178;-74
2023/07/31 07:10:38;;;;;;;2.90;2.30;;;;;;;;;;5035199;28;20199;-74
2023/07/31 07:13:03;;;;;;;3.90;2.37;;;;;;;;;;5035442;28;20195;-74
2023/07/31 07:15:29;;;;;;;3.53;2.40;;;;;;;;;;5042055;28;20175;-74
2023/07/31 07:17:54;;;;;;;4.30;2.33;;;;;;;;;;5041665;28;20170;-74
2023/07/31 07:20:20;;;;;;;4.20;2.70;;;;;;;;;;5041622;28;20177;-74
2023/07/31 07:22:45;;;;;;;5.93;2.47;;;;;;;;;;5033496;28;20183;-72
2023/07/31 07:25:10;;;;;;;4.23;2.17;;;;;;;;;;5038663;28;20209;-72
2023/07/31 07:27:36;;;;;;;4.47;1.87;;;;;;;;;;5045871;28;20173;-74
2023/07/31 07:30:01;;;;;;;4.60;2.80;;;;;;;;;;5044633;28;20213;-74
2023/07/31 07:32:26;;;;;;;5.13;2.47;;;;;;;;;;5038360;28;20174;-74
2023/07/31 07:34:51;;;;;;;5.33;2.57;;;;;;;;;;5034329;28;20218;-72
2023/07/31 07:37:17;;;;;;;4.80;2.57;;;;;;;;;;5042921;28;20170;-72
2023/07/31 07:39:43;;;;;;;4.73;2.80;;;;;;;;;;5044776;28;20182;-72
2023/07/31 07:42:08;;;;;;;3.67;2.63;;;;;;;;;;5039032;28;20170;-72
2023/07/31 07:44:33;;;;;;;2.40;2.20;;;;;;;;;;5045508;28;20206;-73
2023/07/31 07:46:59;;;;;;;7.73;3.03;;;;;;;;;;5044802;28;20226;-75
2023/07/31 07:49:24;;;;;;;4.97;2.20;;;;;;;;;;5044722;28;20189;-74
2023/07/31 07:51:49;;;;;;;3.13;2.23;;;;;;;;;;5045280;28;20186;-74
2023/07/31 07:54:16;;;;;;;34.73;5.93;;;;;;;;;;5047186;28;20210;-75
2023/07/31 07:56:41;;;;;;;4.57;2.73;;;;;;;;;;5049593;28;20168;-75
2023/07/31 07:59:07;;;;;;;3.40;2.40;;;;;;;;;;5050352;28;20179;-75
2023/07/31 08:01:32;;;;;;;3.20;2.33;;;;;;;;;;5049731;28;20225;-75
2023/07/31 08:03:57;;;;;;;6.00;2.47;;;;;;;;;;5043652;28;20317;-75
2023/07/31 08:06:23;;;;;;;4.83;2.47;;;;;;;;;;5042469;28;20196;-74
2023/07/31 08:08:48;;;;;;;4.03;2.80;;;;;;;;;;5047936;28;20177;-75
2023/07/31 08:11:13;;;;;;;3.83;2.50;;;;;;;;;;5046726;28;20175;-75
2023/07/31 08:13:38;;;;;;;21.23;4.27;;;;;;;;;;5042467;28;20217;-72
2023/07/31 08:16:04;;;;;;;6.37;3.13;;;;;;;;;;5043967;28;20179;-73
2023/07/31 08:18:30;;;;;;;5.73;2.50;;;;;;;;;;5045255;28;20230;-75
2023/07/31 08:20:55;;;;;;;5.47;3.13;;;;;;;;;;5046907;28;20175;-72
2023/07/31 08:23:21;;;;;;;6.13;3.13;;;;;;;;;;5036705;28;20183;-72
2023/07/31 08:25:46;;;;;;;6.57;2.63;;;;;;;;;;5038410;28;20178;-73
2023/07/31 08:28:11;;;;;;;14.33;3.23;;;;;;;;;;5048314;28;20208;-72
2023/07/31 08:30:37;;;;;;;4.10;2.93;;;;;;;;;;5047992;28;20239;-72
2023/07/31 08:33:02;;;;;;;2.87;2.43;;;;;;;;;;5045041;28;20203;-73
2023/07/31 08:35:28;;;;;;;4.37;2.57;;;;;;;;;;5046568;28;20209;-72
2023/07/31 08:37:53;;;;;;;4.87;2.57;;;;;;;;;;5040922;28;20174;-72
2023/07/31 08:40:18;;;;;;;7.87;3.27;;;;;;;;;;5041673;28;20173;-74
2023/07/31 08:42:45;;;;;;;4.27;2.60;;;;;;;;;;5041675;28;20265;-72
2023/07/31 08:45:13;;;;;;;4.63;3.03;;;;;;;;;;5045841;28;20181;-72
2023/07/31 08:47:38;;;;;;;5.03;2.77;;;;;;;;;;5047372;28;20189;-72
2023/07/31 08:50:04;;;;;;;5.57;3.17;;;;;;;;;;5048058;28;20179;-72
2023/07/31 08:52:29;;;;;;;5.20;2.53;;;;;;;;;;5049294;28;20216;-72
2023/07/31 08:54:54;;;;;;;5.07;2.93;;;;;;;;;;5042443;28;20376;-73
2023/07/31 08:57:20;;;;;;;6.13;2.93;;;;;;;;;;5048980;28;20181;-72
2023/07/31 08:59:45;;;;;;;7.50;2.67;;;;;;;;;;5039944;28;20282;-72
2023/07/31 09:02:11;;;;;;;7.50;3.80;;;;;;;;;;5037445;28;20267;-72
2023/07/31 09:04:37;;;;;;;4.33;3.20;;;;;;;;;;5039786;28;20264;-72
2023/07/31 09:07:04;;;;;;;6.17;2.77;;;;;;;;;;5050505;28;20170;-72
2023/07/31 09:09:29;;;;;;;6.73;3.23;;;;;;;;;;5040880;28;20194;-72
2023/07/31 09:11:55;;;;;;;5.13;2.17;;;;;;;;;;5043425;28;20198;-72
2023/07/31 09:14:21;;;;;;;4.83;2.57;;;;;;;;;;5036505;28;20208;-72
2023/07/31 09:16:52;;;;;;;6.40;2.90;;;;;;;;;;5039072;28;20171;-72
2023/07/31 09:19:24;;;;;;;4.57;2.37;;;;;;;;;;5043641;28;20226;-72
2023/07/31 09:21:49;;;;;;;7.50;3.27;;;;;;;;;;5039618;28;20308;-73
2023/07/31 09:24:24;;;;;;;5.57;2.97;;;;;;;;;;5036907;28;20309;-72
2023/07/31 09:26:53;;;;;;;5.00;2.97;;;;;;;;;;5043898;28;20231;-72
2023/07/31 09:29:19;;;;;;;5.30;3.00;;;;;;;;;;5034758;28;20189;-72
2023/07/31 09:31:45;;;;;;;4.97;2.77;;;;;;;;;;5040669;28;20191;-73
2023/07/31 09:34:13;;;;;;;9.70;2.93;;;;;;;;;;5040352;28;20203;-72
2023/07/31 09:36:43;;;;;;;5.27;3.03;;;;;;;;;;5039278;28;20239;-72
2023/07/31 09:39:12;;;;;;;5.70;2.83;;;;;;;;;;5040671;28;20186;-72
2023/07/31 09:41:38;;;;;;;5.67;2.93;;;;;;;;;;5035555;28;20248;-72
2023/07/31 09:44:04;;;;;;;9.23;3.67;;;;;;;;;;5041214;28;20184;-73
2023/07/31 09:46:30;;;;;;;4.83;2.83;;;;;;;;;;5036417;28;20178;-73
2023/07/31 09:49:03;;;;;;;4.67;2.30;;;;;;;;;;5043097;28;20183;-72
2023/07/31 09:51:30;;;;;;;5.83;2.40;;;;;;;;;;5038365;28;20194;-72
2023/07/31 09:53:56;;;;;;;5.63;2.83;;;;;;;;;;5038051;28;20238;-73
2023/07/31 09:56:21;;;;;;;4.80;3.23;;;;;;;;;;5040724;28;20172;-72
2023/07/31 09:58:47;;;;;;;5.83;2.60;;;;;;;;;;5038371;28;20270;-74
2023/07/31 10:01:13;;;;;;;6.27;2.83;;;;;;;;;;5039018;28;20171;-75
2023/07/31 10:03:39;;;;;;;10.73;3.20;;;;;;;;;;5042588;28;20313;-75
2023/07/31 10:06:05;;;;;;;7.50;3.27;;;;;;;;;;5039572;28;20300;-75
2023/07/31 10:08:32;;;;;;;4.47;2.57;;;;;;;;;;5039173;28;20197;-75
2023/07/31 10:11:02;;;;;;;7.40;2.50;;;;;;;;;;5035540;28;20197;-73
2023/07/31 10:13:28;;;;;;;7.57;2.50;;;;;;;;;;5036732;28;20204;-75
2023/07/31 10:15:53;;;;;;;4.50;2.83;;;;;;;;;;5039739;28;20188;-73
2023/07/31 10:18:19;;;;;;;5.13;3.13;;;;;;;;;;5037912;28;20171;-75
2023/07/31 10:20:45;;;;;;;4.13;2.67;;;;;;;;;;5038658;28;20208;-73
2023/07/31 10:23:13;;;;;;;6.10;3.37;;;;;;;;;;5037537;28;20189;-73
2023/07/31 10:25:38;;;;;;;5.07;2.60;;;;;;;;;;5038041;28;20257;-73
2023/07/31 10:28:03;;;;;;;7.57;3.20;;;;;;;;;;5039278;28;20191;-73
2023/07/31 10:30:31;;;;;;;9.20;3.47;;;;;;;;;;5045250;28;20185;-73
2023/07/31 10:32:57;;;;;;;5.33;2.57;;;;;;;;;;5041663;28;20212;-72
2023/07/31 10:35:22;;;;;;;3.90;2.87;;;;;;;;;;5040883;28;20172;-73
2023/07/31 10:37:48;;;;;;;6.40;3.40;;;;;;;;;;5037117;28;20208;-73
2023/07/31 10:40:23;;;;;;;5.13;3.30;;;;;;;;;;5044122;28;20172;-75
2023/07/31 10:42:48;;;;;;;4.40;2.37;;;;;;;;;;5038283;28;20177;-75
2023/07/31 10:45:23;;;;;;;4.60;3.40;;;;;;;;;;5037789;28;20170;-75
2023/07/31 10:47:48;;;;;;;5.40;2.93;;;;;;;;;;5045780;28;20185;-73
2023/07/31 10:50:16;;;;;;;6.77;3.07;;;;;;;;;;5041964;28;20204;-73
2023/07/31 10:52:51;;;;;;;4.73;3.17;;;;;;;;;;5038558;28;20212;-73
2023/07/31 10:55:35;;;;;;;4.50;2.90;;;;;;;;;;5032823;28;20260;-72
2023/07/31 10:58:11;;;;;;;4.90;3.00;;;;;;;;;;5043376;28;20187;-73
2023/07/31 11:00:37;;;;;;;3.57;3.10;;;;;;;;;;5041837;28;20196;-72
2023/07/31 11:03:10;;;;;;;8.20;3.47;;;;;;;;;;5044927;28;20249;-73
2023/07/31 11:05:45;;;;;;;4.37;2.73;;;;;;;;;;5044720;28;20181;-73
2023/07/31 11:08:15;;;;;;;4.13;3.27;;;;;;;;;;5044892;28;20175;-72
2023/07/31 11:10:40;;;;;;;6.50;3.07;;;;;;;;;;5045568;28;20199;-72
2023/07/31 11:13:06;;;;;;;6.30;3.17;;;;;;;;;;5043756;28;20190;-73
2023/07/31 11:15:31;;;;;;;4.37;3.00;;;;;;;;;;5045108;28;20261;-74
2023/07/31 11:17:58;;;;;;;6.00;2.90;;;;;;;;;;5049740;28;20203;-74
2023/07/31 11:20:23;;;;;;;3.93;3.17;;;;;;;;;;5040849;28;20178;-73
2023/07/31 11:22:49;;;;;;;6.47;3.57;;;;;;;;;;5039570;28;20181;-72
2023/07/31 11:25:14;;;;;;;10.53;3.57;;;;;;;;;;5046364;28;20187;-73
2023/07/31 11:27:43;;;;;;;4.17;2.80;;;;;;;;;;5041313;28;20167;-73
2023/07/31 11:30:09;;;;;;;4.17;3.10;;;;;;;;;;5046770;28;20229;-73
2023/07/31 11:32:36;;;;;;;7.60;3.20;;;;;;;;;;5042155;28;20178;-73
2023/07/31 11:35:01;;;;;;;7.63;3.40;;;;;;;;;;5044004;28;20215;-73
2023/07/31 11:37:38;;;;;;;4.93;2.60;;;;;;;;;;5047461;28;20181;-72
2023/07/31 11:40:05;;;;;;;7.43;3.37;;;;;;;;;;5049556;28;20195;-73
2023/07/31 11:42:30;;;;;;;5.20;3.17;;;;;;;;;;5048241;28;20181;-73
2023/07/31 11:44:55;;;;;;;9.10;3.70;;;;;;;;;;5052110;28;20182;-73
2023/07/31 11:47:20;;;;;;;5.37;2.80;;;;;;;;;;5040822;28;20212;-73
2023/07/31 11:49:46;;;;;;;4.57;2.90;;;;;;;;;;5046207;28;20342;-73
2023/07/31 11:52:12;;;;;;;3.53;2.50;;;;;;;;;;5041468;28;20186;-73
2023/07/31 11:54:38;;;;;;;6.60;3.13;;;;;;;;;;5043539;28;20280;-74
2023/07/31 11:57:04;;;;;;;5.97;3.20;;;;;;;;;;5044815;28;20249;-73
2023/07/31 11:59:29;;;;;;;4.40;2.53;;;;;;;;;;5045283;28;20184;-73
2023/07/31 12:01:54;;;;;;;3.80;3.00;;;;;;;;;;5047474;28;20175;-73
2023/07/31 12:04:21;;;;;;;5.80;2.87;;;;;;;;;;5045658;28;20316;-73
2023/07/31 12:06:47;;;;;;;4.13;2.63;;;;;;;;;;5036054;28;20178;-73
2023/07/31 12:09:14;;;;;;;4.63;3.07;;;;;;;;;;5046573;28;20173;-74
2023/07/31 12:11:45;;;;;;;5.30;3.23;;;;;;;;;;5045801;28;20261;-73
2023/07/31 12:14:30;;;;;;;3.23;2.57;;;;;;;;;;5039735;28;20209;-73
2023/07/31 12:16:56;;;;;;;3.77;2.80;;;;;;;;;;5042861;28;20177;-73
2023/07/31 12:19:22;;;;;;;4.27;2.93;;;;;;;;;;5040009;28;20176;-73
2023/07/31 12:21:47;;;;;;;4.30;2.63;;;;;;;;;;5047962;28;20197;-73
2023/07/31 12:24:13;;;;;;;7.33;3.67;;;;;;;;;;5043310;28;20202;-73
2023/07/31 12:26:38;;;;;;;4.07;2.93;;;;;;;;;;5046543;28;20188;-74
2023/07/31 12:29:06;;;;;;;5.63;3.00;;;;;;;;;;5043790;28;20189;-74
2023/07/31 12:31:33;;;;;;;3.43;2.63;;;;;;;;;;5041826;28;20223;-73
2023/07/31 12:33:58;;;;;;;7.13;2.80;;;;;;;;;;5040898;28;20199;-73
2023/07/31 12:36:24;;;;;;;6.07;2.90;;;;;;;;;;5039697;28;20184;-74
2023/07/31 12:38:50;;;;;;;8.33;3.00;;;;;;;;;;5042285;28;20185;-73
2023/07/31 12:41:15;;;;;;;3.63;2.87;;;;;;;;;;5039833;28;20179;-74
2023/07/31 12:43:41;;;;;;;4.03;3.67;;;;;;;;;;5039694;28;20230;-74
2023/07/31 12:46:10;;;;;;;3.87;2.90;;;;;;;;;;5045746;28;20581;-74
2023/07/31 12:48:36;;;;;;;2.87;2.33;;;;;;;;;;5041885;28;20184;-73
2023/07/31 12:51:02;;;;;;;12.50;3.80;;;;;;;;;;5043555;28;20185;-74
2023/07/31 12:53:27;;;;;;;6.60;3.87;;;;;;;;;;5039919;28;20353;-74
2023/07/31 12:55:52;;;;;;;7.13;3.07;;;;;;;;;;5046675;28;20263;-74
2023/07/31 12:58:18;;;;;;;4.77;3.10;;;;;;;;;;5043554;28;20179;-73
2023/07/31 13:00:43;;;;;;;5.10;3.30;;;;;;;;;;5038846;28;20196;-74
2023/07/31 13:03:08;;;;;;;3.57;3.07;;;;;;;;;;5036784;28;20242;-74
2023/07/31 13:05:33;;;;;;;2.90;2.40;;;;;;;;;;5035412;28;20177;-74
2023/07/31 13:07:59;;;;;;;6.00;3.07;;;;;;;;;;5044240;28;20254;-74
2023/07/31 13:10:25;;;;;;;6.50;3.00;;;;;;;;;;5048669;28;20190;-80
2023/07/31 13:12:50;;;;;;;4.57;3.10;;;;;;;;;;5037583;28;20258;-79
2023/07/31 13:15:16;;;;;;;3.33;2.47;;;;;;;;;;5043782;28;20257;-79
2023/07/31 13:17:41;;;;;;;5.00;2.90;;;;;;;;;;5042862;28;20176;-79
2023/07/31 13:20:07;;;;;;;4.10;3.00;;;;;;;;;;5043529;28;20185;-78
2023/07/31 13:22:32;;;;;;;4.13;2.53;;;;;;;;;;5037323;28;20180;-79
2023/07/31 13:24:57;;;;;;;8.07;3.70;;;;;;;;;;5041002;28;20215;-79
2023/07/31 13:27:24;;;;;;;5.90;3.13;;;;;;;;;;5047294;28;20171;-78
2023/07/31 13:29:49;;;;;;;5.00;2.70;;;;;;;;;;5046950;28;20258;-78
2023/07/31 13:32:15;;;;;;;8.40;3.20;;;;;;;;;;5046151;28;20334;-79
2023/07/31 13:34:41;;;;;;;6.10;3.70;;;;;;;;;;5048093;28;20196;-78
2023/07/31 13:37:06;;;;;;;3.20;2.33;;;;;;;;;;5044398;28;20180;-79
2023/07/31 13:39:31;;;;;;;2.60;2.17;;;;;;;;;;5048414;28;20172;-78
2023/07/31 13:41:57;;;;;;;5.57;2.70;;;;;;;;;;5040496;28;20180;-78
2023/07/31 13:44:22;;;;;;;6.27;2.60;;;;;;;;;;5040169;28;20227;-79
2023/07/31 13:46:47;;;;;;;7.00;3.20;;;;;;;;;;5042437;28;20185;-78
2023/07/31 13:49:12;;;;;;;3.93;2.73;;;;;;;;;;5038262;28;20174;-78
2023/07/31 13:51:39;;;;;;;5.33;2.80;;;;;;;;;;5044651;28;20182;-79
2023/07/31 13:54:04;;;;;;;5.27;2.80;;;;;;;;;;5044216;28;20242;-78
2023/07/31 13:56:29;;;;;;;3.70;2.73;;;;;;;;;;5044203;28;20214;-78
2023/07/31 13:58:55;;;;;;;6.93;2.80;;;;;;;;;;5048437;28;20172;-79
2023/07/31 14:01:20;;;;;;;4.67;3.17;;;;;;;;;;5042631;28;20173;-79
2023/07/31 14:03:45;;;;;;;4.17;2.47;;;;;;;;;;5043706;28;20238;-79
2023/07/31 14:06:10;;;;;;;5.03;2.60;;;;;;;;;;5051276;28;20176;-79
2023/07/31 14:08:36;;;;;;;6.43;2.83;;;;;;;;;;5041466;28;20194;-78
2023/07/31 14:11:01;;;;;;;5.57;2.60;;;;;;;;;;5046788;28;20179;-78
2023/07/31 14:13:26;;;;;;;4.73;2.80;;;;;;;;;;5040448;28;20213;-79
2023/07/31 14:15:51;;;;;;;3.23;2.40;;;;;;;;;;5045999;28;20176;-79
2023/07/31 14:18:17;;;;;;;3.97;2.00;;;;;;;;;;5042191;28;20184;-79
2023/07/31 14:20:42;;;;;;;4.50;2.60;;;;;;;;;;5045679;28;20183;-79
2023/07/31 14:23:08;;;;;;;3.40;2.60;;;;;;;;;;5039357;28;20182;-78
2023/07/31 14:25:33;;;;;;;3.53;2.33;;;;;;;;;;5044522;28;20182;-79
2023/07/31 14:27:58;;;;;;;5.07;2.73;;;;;;;;;;5043282;28;20175;-78
2023/07/31 14:30:23;;;;;;;4.50;2.33;;;;;;;;;;5044966;28;20192;-79
2023/07/31 14:32:49;;;;;;;2.60;2.40;;;;;;;;;;5037124;28;20189;-79
2023/07/31 14:35:14;;;;;;;3.17;2.40;;;;;;;;;;5046799;28;20168;-79